CheckWX is a tool to help pilots better visualize weather data.  It is not intended as a substitute for an official pre-flight weather briefing.

16:18:19 UTC

KVQQ TAF
Cecil Airport
Jacksonville, Florida, USA
KVQQ 191120Z 1912/2012 28005KT P6SM FEW120 FM191600 28010G18KT P6SM FEW080 SCT120 FM192200 26007KT P6SM FEW060 FM200200 24003KT P6SM SKC

Nov-19@
12:00 UTC

Nov-19 @ 12:00 UTC

Nov-19@
16:00 UTC

Nov-19 @ 16:00 UTC

KVQQ 191120Z 1912/2012 28005KT P6SM FEW120

Expired

Wind
  • 280° at 5 KTS
Cloud Levels
  • Few at 12,000' AGL

Nov-19@
16:00 UTC

Nov-19 @ 16:00 UTC

Nov-19@
22:00 UTC

Nov-19 @ 22:00 UTC

FM191600 28010G18KT P6SM FEW080 SCT120

From

From Standard forecast or significant change

Wind
  • 280° at 10 KTS
  • {Gusting to 18 KTS
Cloud Levels
  • Few at 8,000' AGL
  • Scattered at 12,000' AGL

Nov-19@
22:00 UTC

Nov-19 @ 22:00 UTC

Nov-20@
02:00 UTC

Nov-20 @ 02:00 UTC

FM192200 26007KT P6SM FEW060

From

From Standard forecast or significant change

Wind
  • 260° at 7 KTS
Cloud Levels
  • Few at 6,000' AGL

Nov-20@
02:00 UTC

Nov-20 @ 02:00 UTC

Nov-20@
12:00 UTC

Nov-20 @ 12:00 UTC

FM200200 24003KT P6SM SKC

From

From Standard forecast or significant change

Wind
  • 240° at 3 KTS
Cloud Levels
  • Clear skies